sensor_id;sensor_type;location;lat;lon;timestamp;P1;durP1;ratioP1;P2;durP2;ratioP2
39848;SDS011;25518;47.878;15.914;2023-03-08T01:08:34;15.90;;;8.95;;
39848;SDS011;25518;47.878;15.914;2023-03-08T01:17:53;18.02;;;9.63;;
39848;SDS011;25518;47.878;15.914;2023-03-08T01:21:03;16.27;;;8.88;;
39848;SDS011;25518;47.878;15.914;2023-03-08T01:23:56;17.02;;;9.07;;
39848;SDS011;25518;47.878;15.914;2023-03-08T01:26:48;16.77;;;9.27;;
39848;SDS011;25518;47.878;15.914;2023-03-08T01:29:40;16.90;;;8.95;;
39848;SDS011;25518;47.878;15.914;2023-03-08T01:32:33;17.38;;;9.57;;
39848;SDS011;25518;47.878;15.914;2023-03-08T01:35:29;16.67;;;10.32;;
39848;SDS011;25518;47.878;15.914;2023-03-08T01:38:23;19.55;;;10.25;;
39848;SDS011;25518;47.878;15.914;2023-03-08T01:41:22;17.65;;;9.60;;
39848;SDS011;25518;47.878;15.914;2023-03-08T01:44:47;19.48;;;8.75;;
39848;SDS011;25518;47.878;15.914;2023-03-08T01:47:48;16.55;;;9.15;;
39848;SDS011;25518;47.878;15.914;2023-03-08T01:50:39;16.42;;;9.15;;
39848;SDS011;25518;47.878;15.914;2023-03-08T01:53:31;16.60;;;9.90;;
39848;SDS011;25518;47.878;15.914;2023-03-08T01:56:28;17.73;;;9.32;;
39848;SDS011;25518;47.878;15.914;2023-03-08T01:59:19;18.00;;;8.93;;
39848;SDS011;25518;47.878;15.914;2023-03-08T02:05:44;16.20;;;9.07;;
39848;SDS011;25518;47.878;15.914;2023-03-08T02:08:37;18.58;;;9.98;;
39848;SDS011;25518;47.878;15.914;2023-03-08T02:11:27;15.90;;;8.88;;
39848;SDS011;25518;47.878;15.914;2023-03-08T02:14:23;16.13;;;8.80;;
39848;SDS011;25518;47.878;15.914;2023-03-08T02:21:03;15.98;;;8.80;;
39848;SDS011;25518;47.878;15.914;2023-03-08T02:24:01;16.30;;;8.60;;
39848;SDS011;25518;47.878;15.914;2023-03-08T02:27:10;18.40;;;9.73;;
39848;SDS011;25518;47.878;15.914;2023-03-08T02:30:28;16.02;;;9.05;;
39848;SDS011;25518;47.878;15.914;2023-03-08T02:33:20;16.60;;;9.32;;
39848;SDS011;25518;47.878;15.914;2023-03-08T02:36:11;16.73;;;9.20;;
39848;SDS011;25518;47.878;15.914;2023-03-08T02:39:11;18.00;;;8.88;;
39848;SDS011;25518;47.878;15.914;2023-03-08T02:42:36;15.38;;;8.15;;
39848;SDS011;25518;47.878;15.914;2023-03-08T02:48:08;13.82;;;8.05;;
39848;SDS011;25518;47.878;15.914;2023-03-08T02:51:19;13.18;;;7.50;;
39848;SDS011;25518;47.878;15.914;2023-03-08T02:57:31;12.73;;;7.10;;
39848;SDS011;25518;47.878;15.914;2023-03-08T06:36:37;10.60;;;5.22;;
39848;SDS011;25518;47.878;15.914;2023-03-08T06:39:28;10.10;;;4.90;;
39848;SDS011;25518;47.878;15.914;2023-03-08T06:42:22;8.35;;;5.00;;
39848;SDS011;25518;47.878;15.914;2023-03-08T06:45:13;10.50;;;5.07;;
39848;SDS011;25518;47.878;15.914;2023-03-08T06:48:10;10.95;;;4.85;;
39848;SDS011;25518;47.878;15.914;2023-03-08T06:51:03;8.43;;;4.43;;
39848;SDS011;25518;47.878;15.914;2023-03-08T06:53:53;11.03;;;5.10;;
39848;SDS011;25518;47.878;15.914;2023-03-08T06:56:43;8.38;;;4.88;;
39848;SDS011;25518;47.878;15.914;2023-03-08T06:59:34;9.27;;;4.63;;
39848;SDS011;25518;47.878;15.914;2023-03-08T07:02:24;9.25;;;4.53;;
39848;SDS011;25518;47.878;15.914;2023-03-08T07:05:14;8.47;;;4.70;;
39848;SDS011;25518;47.878;15.914;2023-03-08T07:08:04;9.23;;;4.65;;
39848;SDS011;25518;47.878;15.914;2023-03-08T07:10:54;8.82;;;4.43;;
39848;SDS011;25518;47.878;15.914;2023-03-08T07:13:44;10.73;;;4.63;;
39848;SDS011;25518;47.878;15.914;2023-03-08T07:16:34;10.32;;;4.75;;
39848;SDS011;25518;47.878;15.914;2023-03-08T07:19:24;8.43;;;4.27;;
39848;SDS011;25518;47.878;15.914;2023-03-08T07:22:14;10.87;;;4.20;;
39848;SDS011;25518;47.878;15.914;2023-03-08T07:25:04;9.63;;;4.80;;
39848;SDS011;25518;47.878;15.914;2023-03-08T07:27:54;9.17;;;4.57;;
39848;SDS011;25518;47.878;15.914;2023-03-08T07:30:48;7.35;;;3.70;;
39848;SDS011;25518;47.878;15.914;2023-03-08T07:33:39;7.38;;;3.95;;
39848;SDS011;25518;47.878;15.914;2023-03-08T07:36:32;8.07;;;3.92;;
39848;SDS011;25518;47.878;15.914;2023-03-08T07:39:22;7.88;;;4.45;;
39848;SDS011;25518;47.878;15.914;2023-03-08T07:42:12;7.68;;;4.47;;
39848;SDS011;25518;47.878;15.914;2023-03-08T07:45:02;7.47;;;4.18;;
39848;SDS011;25518;47.878;15.914;2023-03-08T07:47:52;8.00;;;4.05;;
39848;SDS011;25518;47.878;15.914;2023-03-08T07:50:42;6.75;;;3.60;;
39848;SDS011;25518;47.878;15.914;2023-03-08T07:53:32;7.13;;;4.03;;
39848;SDS011;25518;47.878;15.914;2023-03-08T07:56:24;9.00;;;4.37;;
39848;SDS011;25518;47.878;15.914;2023-03-08T07:59:14;8.15;;;3.67;;
39848;SDS011;25518;47.878;15.914;2023-03-08T08:02:04;6.07;;;3.40;;
39848;SDS011;25518;47.878;15.914;2023-03-08T08:04:55;6.40;;;3.42;;
39848;SDS011;25518;47.878;15.914;2023-03-08T08:07:47;7.60;;;3.88;;
39848;SDS011;25518;47.878;15.914;2023-03-08T08:10:37;6.60;;;3.40;;
39848;SDS011;25518;47.878;15.914;2023-03-08T08:13:28;6.70;;;3.63;;
39848;SDS011;25518;47.878;15.914;2023-03-08T08:16:19;7.07;;;3.33;;
39848;SDS011;25518;47.878;15.914;2023-03-08T08:19:11;7.00;;;3.58;;
39848;SDS011;25518;47.878;15.914;2023-03-08T08:22:03;6.75;;;3.13;;
39848;SDS011;25518;47.878;15.914;2023-03-08T08:24:54;7.15;;;3.08;;
39848;SDS011;25518;47.878;15.914;2023-03-08T08:27:45;8.38;;;3.70;;
39848;SDS011;25518;47.878;15.914;2023-03-08T08:30:39;8.10;;;3.78;;
39848;SDS011;25518;47.878;15.914;2023-03-08T08:33:29;8.32;;;4.50;;
39848;SDS011;25518;47.878;15.914;2023-03-08T08:36:22;8.20;;;4.32;;
39848;SDS011;25518;47.878;15.914;2023-03-08T08:39:12;7.33;;;4.07;;
39848;SDS011;25518;47.878;15.914;2023-03-08T08:42:09;6.60;;;3.70;;
39848;SDS011;25518;47.878;15.914;2023-03-08T08:45:06;8.30;;;4.77;;
39848;SDS011;25518;47.878;15.914;2023-03-08T08:48:00;8.65;;;4.78;;
39848;SDS011;25518;47.878;15.914;2023-03-08T08:57:05;6.78;;;3.45;;
39848;SDS011;25518;47.878;15.914;2023-03-08T09:00:22;7.00;;;3.75;;
39848;SDS011;25518;47.878;15.914;2023-03-08T09:03:29;8.30;;;3.85;;
39848;SDS011;25518;47.878;15.914;2023-03-08T09:06:28;6.50;;;3.80;;
39848;SDS011;25518;47.878;15.914;2023-03-08T09:09:32;8.00;;;3.72;;
39848;SDS011;25518;47.878;15.914;2023-03-08T09:12:28;6.78;;;3.70;;
39848;SDS011;25518;47.878;15.914;2023-03-08T09:15:31;6.85;;;3.83;;
39848;SDS011;25518;47.878;15.914;2023-03-08T09:18:28;7.70;;;3.70;;
39848;SDS011;25518;47.878;15.914;2023-03-08T09:21:42;7.75;;;3.70;;
39848;SDS011;25518;47.878;15.914;2023-03-08T09:24:35;8.20;;;4.00;;
39848;SDS011;25518;47.878;15.914;2023-03-08T09:27:47;7.93;;;3.85;;
39848;SDS011;25518;47.878;15.914;2023-03-08T09:30:45;7.85;;;3.60;;
39848;SDS011;25518;47.878;15.914;2023-03-08T09:36:47;8.15;;;4.35;;
39848;SDS011;25518;47.878;15.914;2023-03-08T09:56:03;8.40;;;4.63;;
39848;SDS011;25518;47.878;15.914;2023-03-08T10:02:37;10.43;;;5.63;;
39848;SDS011;25518;47.878;15.914;2023-03-08T10:05:33;11.02;;;5.72;;
39848;SDS011;25518;47.878;15.914;2023-03-08T10:15:15;10.00;;;6.13;;
39848;SDS011;25518;47.878;15.914;2023-03-08T10:21:24;10.32;;;5.28;;
39848;SDS011;25518;47.878;15.914;2023-03-08T10:28:13;9.32;;;5.35;;
39848;SDS011;25518;47.878;15.914;2023-03-08T10:31:42;10.38;;;5.72;;
39848;SDS011;25518;47.878;15.914;2023-03-08T10:37:28;9.88;;;5.38;;
39848;SDS011;25518;47.878;15.914;2023-03-08T10:44:33;11.82;;;5.78;;
39848;SDS011;25518;47.878;15.914;2023-03-08T10:47:32;11.38;;;5.95;;
39848;SDS011;25518;47.878;15.914;2023-03-08T10:50:26;13.20;;;5.40;;
39848;SDS011;25518;47.878;15.914;2023-03-08T10:53:21;9.15;;;5.70;;
39848;SDS011;25518;47.878;15.914;2023-03-08T10:56:21;11.17;;;5.90;;
39848;SDS011;25518;47.878;15.914;2023-03-08T10:59:45;10.18;;;5.28;;
39848;SDS011;25518;47.878;15.914;2023-03-08T11:03:06;11.25;;;5.90;;
39848;SDS011;25518;47.878;15.914;2023-03-08T11:09:49;10.95;;;6.00;;
39848;SDS011;25518;47.878;15.914;2023-03-08T11:12:45;11.48;;;6.35;;
39848;SDS011;25518;47.878;15.914;2023-03-08T11:15:35;10.10;;;5.78;;
39848;SDS011;25518;47.878;15.914;2023-03-08T11:19:05;11.25;;;5.25;;
39848;SDS011;25518;47.878;15.914;2023-03-08T11:28:22;9.48;;;5.78;;
39848;SDS011;25518;47.878;15.914;2023-03-08T11:31:39;10.77;;;5.50;;
39848;SDS011;25518;47.878;15.914;2023-03-08T11:34:44;9.88;;;5.10;;
39848;SDS011;25518;47.878;15.914;2023-03-08T11:41:29;10.65;;;4.95;;
39848;SDS011;25518;47.878;15.914;2023-03-08T11:45:07;12.10;;;6.10;;
39848;SDS011;25518;47.878;15.914;2023-03-08T11:49:08;10.63;;;5.68;;
39848;SDS011;25518;47.878;15.914;2023-03-08T11:52:16;8.97;;;4.83;;
39848;SDS011;25518;47.878;15.914;2023-03-08T11:59:25;9.23;;;5.15;;
39848;SDS011;25518;47.878;15.914;2023-03-08T12:03:13;9.95;;;5.60;;
39848;SDS011;25518;47.878;15.914;2023-03-08T12:09:58;9.20;;;5.18;;
39848;SDS011;25518;47.878;15.914;2023-03-08T12:13:11;9.18;;;5.10;;
39848;SDS011;25518;47.878;15.914;2023-03-08T12:19:42;11.90;;;5.70;;
39848;SDS011;25518;47.878;15.914;2023-03-08T12:22:46;10.93;;;4.85;;
39848;SDS011;25518;47.878;15.914;2023-03-08T12:25:47;7.90;;;4.75;;
39848;SDS011;25518;47.878;15.914;2023-03-08T12:28:42;10.88;;;5.68;;
39848;SDS011;25518;47.878;15.914;2023-03-08T12:31:43;13.77;;;5.55;;
39848;SDS011;25518;47.878;15.914;2023-03-08T12:34:38;10.73;;;4.55;;
39848;SDS011;25518;47.878;15.914;2023-03-08T12:37:30;11.48;;;4.80;;
39848;SDS011;25518;47.878;15.914;2023-03-08T12:43:57;8.05;;;4.15;;
39848;SDS011;25518;47.878;15.914;2023-03-08T12:54:18;9.00;;;4.60;;
39848;SDS011;25518;47.878;15.914;2023-03-08T12:57:19;8.23;;;4.13;;
39848;SDS011;25518;47.878;15.914;2023-03-08T13:06:13;8.82;;;4.05;;
39848;SDS011;25518;47.878;15.914;2023-03-08T13:12:10;11.55;;;4.60;;
39848;SDS011;25518;47.878;15.914;2023-03-08T13:15:22;9.77;;;4.55;;
39848;SDS011;25518;47.878;15.914;2023-03-08T13:18:15;9.25;;;4.32;;
39848;SDS011;25518;47.878;15.914;2023-03-08T13:21:45;8.40;;;4.30;;
39848;SDS011;25518;47.878;15.914;2023-03-08T13:24:54;11.70;;;4.28;;
39848;SDS011;25518;47.878;15.914;2023-03-08T13:27:54;6.53;;;3.38;;
39848;SDS011;25518;47.878;15.914;2023-03-08T13:30:50;9.00;;;4.53;;
39848;SDS011;25518;47.878;15.914;2023-03-08T13:33:44;7.47;;;3.70;;
39848;SDS011;25518;47.878;15.914;2023-03-08T13:36:37;6.88;;;3.60;;
39848;SDS011;25518;47.878;15.914;2023-03-08T13:39:28;6.43;;;3.72;;
39848;SDS011;25518;47.878;15.914;2023-03-08T13:42:19;7.95;;;3.78;;
39848;SDS011;25518;47.878;15.914;2023-03-08T13:45:16;8.35;;;4.25;;
39848;SDS011;25518;47.878;15.914;2023-03-08T13:48:06;7.78;;;3.55;;
39848;SDS011;25518;47.878;15.914;2023-03-08T13:50:57;7.60;;;3.30;;
39848;SDS011;25518;47.878;15.914;2023-03-08T13:53:48;7.00;;;3.55;;
39848;SDS011;25518;47.878;15.914;2023-03-08T13:56:37;6.20;;;3.20;;
39848;SDS011;25518;47.878;15.914;2023-03-08T13:59:27;7.25;;;3.50;;
39848;SDS011;25518;47.878;15.914;2023-03-08T14:02:19;8.23;;;4.13;;
39848;SDS011;25518;47.878;15.914;2023-03-08T14:05:16;6.65;;;3.70;;
39848;SDS011;25518;47.878;15.914;2023-03-08T14:08:17;7.45;;;3.60;;
39848;SDS011;25518;47.878;15.914;2023-03-08T14:11:12;6.50;;;3.30;;
39848;SDS011;25518;47.878;15.914;2023-03-08T14:14:15;6.55;;;3.10;;
39848;SDS011;25518;47.878;15.914;2023-03-08T14:17:27;7.28;;;3.40;;
39848;SDS011;25518;47.878;15.914;2023-03-08T14:20:20;7.75;;;3.28;;
39848;SDS011;25518;47.878;15.914;2023-03-08T14:23:14;7.85;;;3.70;;
39848;SDS011;25518;47.878;15.914;2023-03-08T14:26:51;7.70;;;3.47;;
39848;SDS011;25518;47.878;15.914;2023-03-08T14:29:24;5.63;;;3.10;;
39848;SDS011;25518;47.878;15.914;2023-03-08T14:35:13;10.20;;;3.85;;
39848;SDS011;25518;47.878;15.914;2023-03-08T14:38:13;6.90;;;3.63;;
39848;SDS011;25518;47.878;15.914;2023-03-08T14:41:11;9.57;;;3.93;;
39848;SDS011;25518;47.878;15.914;2023-03-08T14:44:03;7.78;;;3.55;;
39848;SDS011;25518;47.878;15.914;2023-03-08T14:46:53;8.68;;;3.85;;
39848;SDS011;25518;47.878;15.914;2023-03-08T14:50:24;8.20;;;4.07;;
39848;SDS011;25518;47.878;15.914;2023-03-08T14:52:56;9.57;;;4.05;;
39848;SDS011;25518;47.878;15.914;2023-03-08T14:55:48;6.72;;;3.28;;
39848;SDS011;25518;47.878;15.914;2023-03-08T14:58:39;7.60;;;3.50;;
39848;SDS011;25518;47.878;15.914;2023-03-08T15:01:33;10.07;;;3.60;;
39848;SDS011;25518;47.878;15.914;2023-03-08T15:04:24;9.70;;;3.83;;
39848;SDS011;25518;47.878;15.914;2023-03-08T15:07:18;7.57;;;3.50;;
39848;SDS011;25518;47.878;15.914;2023-03-08T15:10:15;10.05;;;3.97;;
39848;SDS011;25518;47.878;15.914;2023-03-08T15:13:20;8.13;;;3.97;;
39848;SDS011;25518;47.878;15.914;2023-03-08T15:16:12;10.65;;;3.88;;
39848;SDS011;25518;47.878;15.914;2023-03-08T15:19:01;6.63;;;3.25;;
39848;SDS011;25518;47.878;15.914;2023-03-08T15:21:51;6.88;;;3.03;;
39848;SDS011;25518;47.878;15.914;2023-03-08T15:24:41;5.80;;;3.23;;
39848;SDS011;25518;47.878;15.914;2023-03-08T15:27:31;4.87;;;3.00;;
39848;SDS011;25518;47.878;15.914;2023-03-08T15:30:23;6.55;;;3.42;;
39848;SDS011;25518;47.878;15.914;2023-03-08T15:33:15;6.33;;;3.30;;
39848;SDS011;25518;47.878;15.914;2023-03-08T15:36:05;8.10;;;3.70;;
39848;SDS011;25518;47.878;15.914;2023-03-08T15:38:56;6.47;;;3.33;;
39848;SDS011;25518;47.878;15.914;2023-03-08T15:41:47;10.50;;;3.63;;
39848;SDS011;25518;47.878;15.914;2023-03-08T15:44:37;7.30;;;4.00;;
39848;SDS011;25518;47.878;15.914;2023-03-08T15:47:27;7.97;;;3.20;;
39848;SDS011;25518;47.878;15.914;2023-03-08T15:50:17;5.78;;;2.72;;
39848;SDS011;25518;47.878;15.914;2023-03-08T15:53:06;6.43;;;3.17;;
39848;SDS011;25518;47.878;15.914;2023-03-08T15:55:57;6.35;;;2.90;;
39848;SDS011;25518;47.878;15.914;2023-03-08T15:58:47;7.35;;;2.90;;
39848;SDS011;25518;47.878;15.914;2023-03-08T16:01:37;7.55;;;4.00;;
39848;SDS011;25518;47.878;15.914;2023-03-08T16:04:26;10.13;;;3.88;;
39848;SDS011;25518;47.878;15.914;2023-03-08T16:07:17;7.90;;;3.38;;
39848;SDS011;25518;47.878;15.914;2023-03-08T16:10:08;7.22;;;2.92;;
39848;SDS011;25518;47.878;15.914;2023-03-08T16:13:00;7.90;;;2.95;;
39848;SDS011;25518;47.878;15.914;2023-03-08T16:15:50;7.03;;;2.90;;
39848;SDS011;25518;47.878;15.914;2023-03-08T16:18:39;4.87;;;2.50;;
39848;SDS011;25518;47.878;15.914;2023-03-08T16:21:29;5.40;;;2.83;;
39848;SDS011;25518;47.878;15.914;2023-03-08T16:24:19;6.72;;;2.55;;
39848;SDS011;25518;47.878;15.914;2023-03-08T16:27:08;5.97;;;2.72;;
39848;SDS011;25518;47.878;15.914;2023-03-08T16:29:59;6.72;;;2.50;;
39848;SDS011;25518;47.878;15.914;2023-03-08T16:32:51;5.28;;;2.55;;
39848;SDS011;25518;47.878;15.914;2023-03-08T16:35:46;6.40;;;2.13;;
39848;SDS011;25518;47.878;15.914;2023-03-08T16:38:37;5.00;;;2.15;;
39848;SDS011;25518;47.878;15.914;2023-03-08T16:41:32;4.47;;;2.33;;
39848;SDS011;25518;47.878;15.914;2023-03-08T16:45:00;4.60;;;2.57;;
39848;SDS011;25518;47.878;15.914;2023-03-08T16:47:59;3.70;;;1.98;;
39848;SDS011;25518;47.878;15.914;2023-03-08T16:51:14;4.05;;;2.08;;
39848;SDS011;25518;47.878;15.914;2023-03-08T16:54:32;5.30;;;2.13;;
39848;SDS011;25518;47.878;15.914;2023-03-08T16:57:23;5.88;;;2.65;;
39848;SDS011;25518;47.878;15.914;2023-03-08T17:00:30;4.43;;;1.92;;
39848;SDS011;25518;47.878;15.914;2023-03-08T17:33:14;12.18;;;4.78;;
39848;SDS011;25518;47.878;15.914;2023-03-08T17:36:56;7.22;;;3.80;;
39848;SDS011;25518;47.878;15.914;2023-03-08T17:40:05;5.80;;;3.50;;
39848;SDS011;25518;47.878;15.914;2023-03-08T17:42:58;8.80;;;4.05;;
39848;SDS011;25518;47.878;15.914;2023-03-08T17:45:59;6.95;;;3.72;;
39848;SDS011;25518;47.878;15.914;2023-03-08T17:49:01;12.65;;;6.55;;
39848;SDS011;25518;47.878;15.914;2023-03-08T17:51:56;7.55;;;4.20;;
39848;SDS011;25518;47.878;15.914;2023-03-08T17:55:27;11.77;;;4.60;;
39848;SDS011;25518;47.878;15.914;2023-03-08T17:58:49;10.13;;;5.78;;
39848;SDS011;25518;47.878;15.914;2023-03-08T18:02:05;9.50;;;5.47;;
39848;SDS011;25518;47.878;15.914;2023-03-08T18:05:46;8.53;;;4.57;;
39848;SDS011;25518;47.878;15.914;2023-03-08T18:33:36;12.25;;;6.10;;
39848;SDS011;25518;47.878;15.914;2023-03-08T18:37:42;11.43;;;5.40;;
39848;SDS011;25518;47.878;15.914;2023-03-08T18:41:21;11.70;;;5.93;;
39848;SDS011;25518;47.878;15.914;2023-03-08T18:44:26;9.55;;;5.55;;
39848;SDS011;25518;47.878;15.914;2023-03-08T18:47:30;7.82;;;4.13;;
39848;SDS011;25518;47.878;15.914;2023-03-08T18:50:23;7.68;;;3.88;;
39848;SDS011;25518;47.878;15.914;2023-03-08T18:53:18;9.30;;;3.83;;
39848;SDS011;25518;47.878;15.914;2023-03-08T18:56:09;7.43;;;3.85;;
39848;SDS011;25518;47.878;15.914;2023-03-08T18:59:00;7.15;;;3.72;;
39848;SDS011;25518;47.878;15.914;2023-03-08T19:01:52;6.80;;;3.42;;
39848;SDS011;25518;47.878;15.914;2023-03-08T19:04:45;7.22;;;3.38;;
39848;SDS011;25518;47.878;15.914;2023-03-08T19:07:36;6.10;;;3.30;;
39848;SDS011;25518;47.878;15.914;2023-03-08T19:10:30;7.80;;;3.05;;
